createdAt,value
2022-10-28T00:02:02.205Z,101604.94
2022-10-28T00:05:04.961Z,101603.50
2022-10-28T00:08:07.462Z,101603.50
2022-10-28T00:11:11.937Z,101592.97
2022-10-28T00:14:15.780Z,101598.00
2022-10-28T00:17:18.384Z,101601.78
2022-10-28T00:20:21.064Z,101598.75
2022-10-28T00:23:23.598Z,101596.91
2022-10-28T00:26:28.541Z,101598.53
2022-10-28T00:29:32.786Z,101590.03
2022-10-28T00:32:35.287Z,101587.19
2022-10-28T00:35:37.778Z,101592.16
2022-10-28T00:38:41.138Z,101589.19
2022-10-28T00:41:46.217Z,101589.25
2022-10-28T00:44:55.284Z,101590.03
2022-10-28T00:48:01.063Z,101587.91
2022-10-28T00:51:05.277Z,101594.38
2022-10-28T00:54:09.011Z,101598.06
2022-10-28T00:57:15.250Z,101600.13
2022-10-28T01:00:19.438Z,101597.44
2022-10-28T01:03:22.235Z,101599.31
2022-10-28T01:06:27.782Z,101600.56
2022-10-28T01:09:30.309Z,101605.03
2022-10-28T01:12:42.448Z,101597.16
2022-10-28T01:15:53.461Z,101600.13
2022-10-28T01:19:10.445Z,101591.03
2022-10-28T01:22:21.859Z,101594.47
2022-10-28T01:25:45.373Z,101589.78
2022-10-28T01:29:30.010Z,101593.25
2022-10-28T01:32:44.418Z,101593.81
2022-10-28T01:35:53.635Z,101593.81
2022-10-28T01:39:04.614Z,101595.56
2022-10-28T01:42:20.113Z,101592.88
2022-10-28T01:45:27.815Z,101594.78
2022-10-28T01:48:35.741Z,101599.97
2022-10-28T01:51:42.801Z,101593.19
2022-10-28T01:54:49.019Z,101596.63
2022-10-28T01:57:53.598Z,101596.94
2022-10-28T02:00:57.759Z,101590.81
2022-10-28T02:04:03.132Z,101582.78
2022-10-28T02:07:05.876Z,101585.84
2022-10-28T02:10:17.200Z,101574.13
2022-10-28T02:13:22.553Z,101584.94
2022-10-28T02:16:31.334Z,101600.97
2022-10-28T02:19:44.564Z,101576.06
2022-10-28T02:22:51.187Z,101577.88
2022-10-28T02:25:58.617Z,101570.97
2022-10-28T02:29:06.662Z,101570.66
2022-10-28T02:32:12.337Z,101565.31
2022-10-28T02:35:20.092Z,101564.44
2022-10-28T02:38:27.776Z,101553.59
2022-10-28T02:41:35.632Z,101552.84
2022-10-28T02:44:42.859Z,101559.97
2022-10-28T02:47:49.073Z,101554.84
2022-10-28T02:50:59.752Z,101554.06
2022-10-28T02:54:07.356Z,101553.31
2022-10-28T02:57:13.277Z,101552.66
2022-10-28T03:00:18.205Z,101548.41
2022-10-28T03:03:20.753Z,101544.47
2022-10-28T03:09:28.041Z,101519.25
2022-10-28T03:12:30.538Z,101517.66
2022-10-28T03:15:33.019Z,101520.53
2022-10-28T03:18:35.518Z,101511.75
2022-10-28T03:21:39.339Z,101508.34
2022-10-28T03:24:41.839Z,101509.59
2022-10-28T03:27:44.323Z,101521.25
2022-10-28T03:30:46.850Z,101522.38
2022-10-28T03:33:49.301Z,101516.28
2022-10-28T03:36:53.142Z,101517.81
2022-10-28T03:39:55.640Z,101519.63
2022-10-28T03:42:58.107Z,101515.00
2022-10-28T03:46:00.585Z,101510.22
2022-10-28T03:49:03.082Z,101499.47
2022-10-28T03:52:06.994Z,101500.31
2022-10-28T03:55:09.805Z,101502.00
2022-10-28T03:58:12.300Z,101497.88
2022-10-28T04:01:14.844Z,101503.13
2022-10-28T04:04:17.405Z,101496.69
2022-10-28T04:07:21.307Z,101489.47
2022-10-28T04:10:23.830Z,101491.97
2022-10-28T04:13:26.292Z,101496.22
2022-10-28T04:16:28.795Z,101498.25
2022-10-28T04:19:31.269Z,101493.88
2022-10-28T04:22:35.111Z,101481.47
2022-10-28T04:25:37.580Z,101473.53
2022-10-28T04:28:40.069Z,101479.56
2022-10-28T04:31:42.546Z,101480.31
2022-10-28T04:34:45.046Z,101476.13
2022-10-28T04:37:48.878Z,101484.06
2022-10-28T04:40:51.481Z,101481.59
2022-10-28T04:43:55.957Z,101481.56
2022-10-28T04:46:58.446Z,101483.06
2022-10-28T04:50:01.055Z,101486.66
2022-10-28T04:53:04.911Z,101488.84
2022-10-28T04:56:07.996Z,101492.63
2022-10-28T04:59:10.600Z,101501.91
2022-10-28T05:02:13.160Z,101490.91
2022-10-28T05:08:20.721Z,101478.28
2022-10-28T05:11:23.459Z,101477.72
2022-10-28T05:14:26.118Z,101480.13
2022-10-28T05:17:28.605Z,101471.88
2022-10-28T05:20:31.142Z,101469.53
2022-10-28T05:23:34.966Z,101468.56
2022-10-28T05:26:37.483Z,101471.09
2022-10-28T05:29:39.954Z,101465.09
2022-10-28T05:32:43.018Z,101457.00
2022-10-28T05:35:45.515Z,101436.34
2022-10-28T05:38:49.675Z,101447.97
2022-10-28T05:41:52.159Z,101449.84
2022-10-28T05:44:54.631Z,101456.31
2022-10-28T05:47:57.444Z,101452.91
2022-10-28T05:50:59.915Z,101450.00
2022-10-28T05:54:03.805Z,101451.09
2022-10-28T05:57:06.276Z,101446.84
2022-10-28T06:00:10.141Z,101441.56
2022-10-28T06:03:13.455Z,101434.59
2022-10-28T06:06:15.945Z,101438.16
2022-10-28T06:09:19.750Z,101428.38
2022-10-28T06:12:21.898Z,101436.75
2022-10-28T06:15:24.706Z,101433.22
2022-10-28T06:18:27.165Z,101438.47
2022-10-28T06:21:29.710Z,101440.25
2022-10-28T06:24:33.513Z,101446.75
2022-10-28T06:27:36.014Z,101449.47
2022-10-28T06:30:38.529Z,101446.75
2022-10-28T06:33:41.020Z,101450.34
2022-10-28T06:36:43.494Z,101463.00
2022-10-28T06:39:49.735Z,101455.97
2022-10-28T06:42:57.953Z,101460.41
2022-10-28T06:46:01.381Z,101453.38
2022-10-28T06:49:05.756Z,101445.94
2022-10-28T06:52:08.258Z,101448.69
2022-10-28T06:55:12.206Z,101444.13
2022-10-28T06:58:14.692Z,101444.13
2022-10-28T07:01:17.224Z,101456.69
2022-10-28T07:04:19.797Z,101458.44
2022-10-28T07:07:22.363Z,101465.19
2022-10-28T07:10:26.342Z,101468.78
2022-10-28T07:13:29.099Z,101470.25
2022-10-28T07:16:31.586Z,101469.16
2022-10-28T07:19:34.072Z,101468.09
2022-10-28T07:22:36.569Z,101461.69
2022-10-28T07:25:40.538Z,101452.38
2022-10-28T07:28:43.227Z,101462.25
2022-10-28T07:31:45.745Z,101457.63
2022-10-28T07:34:48.209Z,101457.97
2022-10-28T07:37:50.709Z,101448.91
2022-10-28T07:40:54.575Z,101452.63
2022-10-28T07:43:57.092Z,101449.56
2022-10-28T07:46:59.593Z,101445.03
2022-10-28T07:50:02.096Z,101447.38
2022-10-28T07:53:04.674Z,101441.63
2022-10-28T07:56:13.493Z,101457.03
2022-10-28T07:59:15.978Z,101453.56
2022-10-28T08:02:20.347Z,101455.78
2022-10-28T08:05:22.853Z,101457.88
2022-10-28T08:08:25.321Z,101460.31
2022-10-28T08:11:29.195Z,101455.28
2022-10-28T08:14:31.682Z,101456.28
2022-10-28T08:17:34.151Z,101444.75
2022-10-28T08:20:36.632Z,101433.00
2022-10-28T08:23:39.442Z,101437.53
2022-10-28T08:26:43.261Z,101440.56
2022-10-28T08:29:45.751Z,101436.09
2022-10-28T08:32:48.212Z,101447.44
2022-10-28T08:35:51.958Z,101443.44
2022-10-28T08:38:54.449Z,101446.50
2022-10-28T08:42:10.758Z,101454.78
2022-10-28T08:45:20.501Z,101447.13
2022-10-28T08:48:31.262Z,101448.69
2022-10-28T08:51:41.982Z,101448.47
2022-10-28T08:54:50.363Z,101441.75
2022-10-28T08:57:57.410Z,101436.97
2022-10-28T09:01:00.468Z,101438.13
2022-10-28T09:04:11.877Z,101444.34
2022-10-28T09:07:18.323Z,101435.94
2022-10-28T09:10:39.641Z,101441.00
2022-10-28T09:13:58.566Z,101443.53
2022-10-28T09:17:15.975Z,101434.94
2022-10-28T09:20:20.892Z,101430.53
2022-10-28T09:23:25.467Z,101441.59
2022-10-28T09:26:45.840Z,101431.63
2022-10-28T09:30:00.287Z,101428.69
2022-10-28T09:33:14.979Z,101434.91
2022-10-28T09:36:23.467Z,101431.78
2022-10-28T09:39:29.631Z,101416.91
2022-10-28T09:42:36.991Z,101418.28
2022-10-28T09:45:46.066Z,101424.53
2022-10-28T09:48:50.623Z,101419.66
2022-10-28T09:52:00.575Z,101416.00
2022-10-28T09:55:14.863Z,101418.75
2022-10-28T09:58:19.287Z,101415.59
2022-10-28T10:01:23.319Z,101424.84
2022-10-28T10:04:31.107Z,101413.22
2022-10-28T10:07:37.720Z,101417.88
2022-10-28T10:10:46.741Z,101426.03
2022-10-28T10:13:51.113Z,101420.72
2022-10-28T10:16:57.588Z,101425.41
2022-10-28T10:20:07.178Z,101418.69
2022-10-28T10:23:23.314Z,101421.19
2022-10-28T10:26:25.876Z,101418.72
2022-10-28T10:29:30.139Z,101423.03
2022-10-28T10:32:34.998Z,101418.69
2022-10-28T10:35:38.680Z,101419.88
2022-10-28T10:38:48.478Z,101423.63
2022-10-28T10:41:50.946Z,101415.50
2022-10-28T10:45:02.296Z,101418.19
2022-10-28T10:48:14.053Z,101403.25
2022-10-28T10:51:25.458Z,101398.53
2022-10-28T10:54:30.957Z,101387.56
2022-10-28T10:57:34.269Z,101390.16
2022-10-28T11:00:38.612Z,101379.00
2022-10-28T11:03:50.276Z,101384.28
2022-10-28T11:06:55.869Z,101378.72
2022-10-28T11:09:58.484Z,101373.94
2022-10-28T11:13:05.608Z,101367.59
2022-10-28T11:16:17.502Z,101372.81
2022-10-28T11:19:23.516Z,101367.09
2022-10-28T11:22:38.430Z,101368.56
2022-10-28T11:25:45.113Z,101367.13
2022-10-28T11:28:59.653Z,101363.09
2022-10-28T11:32:22.825Z,101363.28
2022-10-28T11:35:37.827Z,101375.06
2022-10-28T11:38:54.777Z,101365.19
2022-10-28T11:42:08.585Z,101369.75
2022-10-28T11:45:20.094Z,101361.44
2022-10-28T11:48:36.409Z,101350.97
2022-10-28T11:51:50.356Z,101345.19
2022-10-28T11:55:05.076Z,101353.22
2022-10-28T11:58:32.225Z,101349.66
2022-10-28T12:01:46.484Z,101348.47
2022-10-28T12:04:59.331Z,101347.63
2022-10-28T12:08:12.127Z,101346.66
2022-10-28T12:11:25.572Z,101344.84
2022-10-28T12:14:39.124Z,101342.81
2022-10-28T12:17:46.921Z,101342.00
2022-10-28T12:20:57.550Z,101349.00
2022-10-28T12:24:01.767Z,101344.00
2022-10-28T12:27:17.030Z,101343.22
2022-10-28T12:30:24.577Z,101346.56
2022-10-28T12:33:34.294Z,101341.78
2022-10-28T12:36:42.426Z,101340.09
2022-10-28T12:39:57.372Z,101340.63
2022-10-28T12:43:05.055Z,101339.75
2022-10-28T12:46:17.341Z,101331.38
2022-10-28T12:49:26.112Z,101335.56
2022-10-28T12:52:39.044Z,101330.44
2022-10-28T12:55:47.901Z,101328.34
2022-10-28T12:58:59.641Z,101321.19
2022-10-28T13:02:04.001Z,101326.22
2022-10-28T13:05:07.581Z,101327.44
2022-10-28T13:08:44.472Z,101330.50
2022-10-28T13:12:22.964Z,101320.94
2022-10-28T13:15:48.592Z,101324.13
2022-10-28T13:19:20.518Z,101317.91
2022-10-28T13:22:47.067Z,101317.69
2022-10-28T13:25:59.418Z,101315.94
2022-10-28T13:29:07.021Z,101313.72
2022-10-28T13:32:32.767Z,101314.59
2022-10-28T13:35:38.466Z,101312.06
2022-10-28T13:38:41.509Z,101313.28
2022-10-28T13:41:47.935Z,101307.53
2022-10-28T13:44:53.225Z,101296.22
2022-10-28T13:48:36.148Z,101303.13
2022-10-28T13:51:48.117Z,101299.78
2022-10-28T13:54:55.533Z,101306.63
2022-10-28T13:58:04.136Z,101297.53
2022-10-28T14:01:38.223Z,101297.06
2022-10-28T14:04:43.826Z,101301.72
2022-10-28T14:07:55.373Z,101295.69
2022-10-28T14:11:03.209Z,101294.34
2022-10-28T14:14:05.832Z,101296.38
2022-10-28T14:17:21.864Z,101288.13
2022-10-28T14:20:39.176Z,101291.00
2022-10-28T14:24:07.879Z,101286.34
2022-10-28T14:27:30.403Z,101284.47
2022-10-28T14:30:32.939Z,101281.88
2022-10-28T14:33:36.402Z,101272.34
2022-10-28T14:36:48.916Z,101271.63
2022-10-28T14:40:06.949Z,101274.06
2022-10-28T14:43:27.837Z,101281.91
2022-10-28T14:46:48.028Z,101277.00
2022-10-28T14:50:01.557Z,101281.66
2022-10-28T14:53:08.622Z,101269.88
2022-10-28T14:56:19.591Z,101270.19
2022-10-28T14:59:26.817Z,101278.88
2022-10-28T15:02:30.857Z,101272.13
2022-10-28T15:05:34.760Z,101268.53
2022-10-28T15:08:38.668Z,101270.97
2022-10-28T15:11:46.101Z,101262.59
2022-10-28T15:14:51.997Z,101274.72
2022-10-28T15:17:54.908Z,101260.00
2022-10-28T15:21:09.205Z,101258.09
2022-10-28T15:24:15.187Z,101264.88
2022-10-28T15:27:18.045Z,101255.63
2022-10-28T15:30:23.573Z,101262.47
2022-10-28T15:33:31.015Z,101258.91
2022-10-28T15:36:33.688Z,101261.06
2022-10-28T15:39:39.525Z,101248.91
2022-10-28T15:42:45.593Z,101253.78
2022-10-28T15:45:48.254Z,101259.16
2022-10-28T15:48:53.036Z,101256.19
2022-10-28T15:52:32.763Z,101261.06
2022-10-28T15:59:09.405Z,101265.28
2022-10-28T16:02:40.336Z,101260.97
2022-10-28T16:05:47.206Z,101257.13
2022-10-28T16:08:59.438Z,101257.72
2022-10-28T16:12:05.776Z,101263.75
2022-10-28T16:15:15.042Z,101266.66
2022-10-28T16:18:17.571Z,101261.94
2022-10-28T16:21:22.692Z,101252.91
2022-10-28T16:24:25.201Z,101257.53
2022-10-28T16:27:32.463Z,101267.00
2022-10-28T16:30:34.995Z,101265.94
2022-10-28T16:33:39.628Z,101264.75
2022-10-28T16:36:42.108Z,101267.97
2022-10-28T16:39:44.584Z,101272.72
2022-10-28T16:42:48.433Z,101279.16
2022-10-28T16:45:52.268Z,101280.97
2022-10-28T16:48:54.762Z,101283.47
2022-10-28T16:51:57.253Z,101273.34
2022-10-28T16:54:59.877Z,101280.25
2022-10-28T16:58:03.720Z,101277.31
2022-10-28T17:01:06.620Z,101278.06
2022-10-28T17:04:09.909Z,101286.50
2022-10-28T17:07:16.144Z,101287.53
2022-10-28T17:10:18.731Z,101290.66
2022-10-28T17:13:22.581Z,101300.13
2022-10-28T17:16:25.295Z,101295.72
2022-10-28T17:19:27.784Z,101304.13
2022-10-28T17:22:30.256Z,101306.91
2022-10-28T17:25:32.827Z,101305.81
2022-10-28T17:28:36.695Z,101310.69
2022-10-28T17:31:39.266Z,101311.53
2022-10-28T17:34:41.870Z,101311.41
2022-10-28T17:37:44.340Z,101309.72
2022-10-28T17:40:54.489Z,101308.59
2022-10-28T17:43:58.292Z,101319.25
2022-10-28T17:47:01.054Z,101311.41
2022-10-28T17:50:03.749Z,101317.13
2022-10-28T17:53:06.242Z,101320.44
2022-10-28T17:56:09.474Z,101320.84
2022-10-28T17:59:13.306Z,101321.94
2022-10-28T18:02:15.912Z,101326.91
2022-10-28T18:05:18.536Z,101322.03
2022-10-28T18:08:21.498Z,101326.47
2022-10-28T18:11:24.109Z,101334.00
2022-10-28T18:14:28.409Z,101330.25
2022-10-28T18:17:30.880Z,101325.38
2022-10-28T18:20:33.377Z,101337.53
2022-10-28T18:23:36.147Z,101331.44
2022-10-28T18:26:40.037Z,101330.84
2022-10-28T18:29:43.844Z,101335.50
2022-10-28T18:32:46.328Z,101335.50
2022-10-28T18:35:48.859Z,101335.25
2022-10-28T18:38:52.070Z,101337.81
2022-10-28T18:41:54.542Z,101326.84
2022-10-28T18:44:58.861Z,101338.03
2022-10-28T18:48:01.542Z,101342.78
2022-10-28T18:51:06.647Z,101345.78
2022-10-28T18:54:09.299Z,101354.16
2022-10-28T18:57:11.777Z,101350.84
2022-10-28T19:00:18.815Z,101340.88
2022-10-28T19:03:23.953Z,101343.75
2022-10-28T19:06:29.733Z,101358.16
2022-10-28T19:09:32.249Z,101360.00
2022-10-28T19:12:37.060Z,101373.28
2022-10-28T19:15:48.397Z,101362.13
2022-10-28T19:18:55.371Z,101362.22
2022-10-28T19:21:57.973Z,101361.03
2022-10-28T19:25:00.458Z,101358.00
2022-10-28T19:28:02.949Z,101370.13
2022-10-28T19:31:09.294Z,101363.97
2022-10-28T19:34:11.809Z,101378.84
2022-10-28T19:37:14.277Z,101380.69
2022-10-28T19:40:16.750Z,101393.38
2022-10-28T19:43:19.249Z,101389.91
2022-10-28T19:46:23.307Z,101398.97
2022-10-28T19:49:28.680Z,101407.78
2022-10-28T19:52:33.477Z,101412.94
2022-10-28T19:55:35.953Z,101413.53
2022-10-28T19:58:38.435Z,101410.47
2022-10-28T20:01:42.426Z,101417.56
2022-10-28T20:04:45.027Z,101422.56
2022-10-28T20:07:47.515Z,101429.66
2022-10-28T20:10:57.789Z,101438.88
2022-10-28T20:14:01.979Z,101455.19
2022-10-28T20:17:07.044Z,101459.19
2022-10-28T20:20:10.543Z,101463.06
2022-10-28T20:23:13.096Z,101467.19
2022-10-28T20:26:15.881Z,101465.97
2022-10-28T20:29:18.536Z,101473.44
2022-10-28T20:32:24.438Z,101465.16
2022-10-28T20:35:26.910Z,101468.22
2022-10-28T20:38:29.784Z,101474.88
2022-10-28T20:41:33.741Z,101487.44
2022-10-28T20:44:36.200Z,101493.69
2022-10-28T20:47:40.038Z,101492.31
2022-10-28T20:50:50.302Z,101505.06
2022-10-28T20:53:52.902Z,101509.91
2022-10-28T20:56:55.382Z,101504.91
2022-10-28T20:59:57.857Z,101510.28
2022-10-28T21:03:02.429Z,101511.53
2022-10-28T21:06:05.351Z,101516.34
2022-10-28T21:09:08.879Z,101518.44
2022-10-28T21:12:11.528Z,101513.81
2022-10-28T21:15:14.060Z,101509.91
2022-10-28T21:18:17.905Z,101522.22
2022-10-28T21:21:21.463Z,101543.78
2022-10-28T21:24:24.179Z,101532.16
2022-10-28T21:27:26.651Z,101538.41
2022-10-28T21:30:29.584Z,101540.81
2022-10-28T21:33:34.398Z,101536.41
2022-10-28T21:36:36.976Z,101536.38
2022-10-28T21:39:39.749Z,101536.97
2022-10-28T21:42:42.886Z,101532.72
2022-10-28T21:45:45.368Z,101542.31
2022-10-28T21:48:49.426Z,101555.47
2022-10-28T21:51:51.896Z,101556.91
2022-10-28T21:54:54.398Z,101561.69
2022-10-28T21:57:57.124Z,101565.94
2022-10-28T22:01:04.183Z,101564.75
2022-10-28T22:04:08.346Z,101580.13
2022-10-28T22:07:10.834Z,101576.84
2022-10-28T22:10:13.347Z,101572.28
2022-10-28T22:13:15.957Z,101571.88
2022-10-28T22:16:19.043Z,101573.41
2022-10-28T22:19:22.884Z,101579.00
2022-10-28T22:22:26.501Z,101577.44
2022-10-28T22:25:29.011Z,101577.97
2022-10-28T22:28:32.294Z,101582.13
2022-10-28T22:31:34.982Z,101583.56
2022-10-28T22:34:38.809Z,101575.78
2022-10-28T22:37:41.297Z,101576.38
2022-10-28T22:40:43.870Z,101576.09
2022-10-28T22:43:49.132Z,101561.69
2022-10-28T22:46:51.698Z,101567.06
2022-10-28T22:49:55.528Z,101569.66
2022-10-28T22:52:58.068Z,101576.00
2022-10-28T22:56:00.582Z,101575.50
2022-10-28T22:59:03.276Z,101578.94
2022-10-28T23:02:05.848Z,101571.47
2022-10-28T23:05:10.461Z,101575.28
2022-10-28T23:08:16.013Z,101575.44
2022-10-28T23:11:20.098Z,101567.44
2022-10-28T23:14:22.596Z,101566.47
2022-10-28T23:17:25.093Z,101574.53
2022-10-28T23:20:30.245Z,101576.69
2022-10-28T23:23:33.109Z,101572.75
2022-10-28T23:26:36.151Z,101585.44
2022-10-28T23:29:38.658Z,101582.31
2022-10-28T23:32:41.387Z,101580.25
2022-10-28T23:35:45.232Z,101580.75
2022-10-28T23:38:47.722Z,101587.69
2022-10-28T23:41:50.223Z,101592.88
2022-10-28T23:44:52.693Z,101581.97
2022-10-28T23:47:55.173Z,101587.63
2022-10-28T23:50:59.247Z,101584.47
2022-10-28T23:54:01.784Z,101585.31
2022-10-28T23:57:04.460Z,101591.34
